Time;durP1;ratioP1;P1;durP2;ratioP2;P2;SDS_P1;SDS_P2;PMS_P1;PMS_P2;Temp;Humidity;BMP_temperature;BMP_pressure;BME280_temperature;BME280_humidity;BME280_pressure;Samples;Min_cycle;Max_cycle;Signal;HPM_P1;HPM_P2
2022/02/01 00:00:41;;;;;;;38.80;28.03;;;2.30;85.50;;;;;;4976408;28;20507;-79
2022/02/01 00:03:08;;;;;;;40.87;29.13;;;2.30;85.30;;;;;;4976611;28;20019;-78
2022/02/01 00:05:45;;;;;;;42.17;28.83;;;2.30;84.90;;;;;;4976651;28;20081;-79
2022/02/01 00:08:38;;;;;;;41.87;30.27;;;2.30;85.50;;;;;;4976572;28;20015;-78
2022/02/01 00:37:56;;;;;;;35.63;23.90;;;2.30;86.80;;;;;;4975982;28;20089;-79
2022/02/01 00:40:22;;;;;;;26.07;18.60;;;2.30;87.20;;;;;;4976162;28;20015;-79
2022/02/01 00:42:48;;;;;;;24.30;17.93;;;2.30;87.20;;;;;;4976053;28;20027;-78
2022/02/01 00:45:13;;;;;;;30.10;18.43;;;2.30;87.40;;;;;;4975939;28;20033;-78
2022/02/01 00:47:42;;;;;;;32.63;21.83;;;2.30;87.50;;;;;;4975684;28;20031;-78
2022/02/01 00:50:11;;;;;;;36.40;24.67;;;2.40;86.80;;;;;;4974864;28;20034;-78
2022/02/01 00:52:37;;;;;;;35.17;23.63;;;2.40;86.50;;;;;;4975479;28;20187;-78
2022/02/01 00:55:03;;;;;;;35.80;24.27;;;2.40;86.40;;;;;;4975728;28;20118;-78
2022/02/01 00:57:29;;;;;;;39.93;27.07;;;2.40;86.50;;;;;;4975773;28;20037;-79
2022/02/01 00:59:55;;;;;;;39.63;26.97;;;2.40;86.20;;;;;;4975736;28;20030;-80
2022/02/01 01:02:21;;;;;;;40.20;27.90;;;2.30;86.00;;;;;;4973733;28;20106;-79
2022/02/01 01:04:46;;;;;;;40.67;29.40;;;2.30;85.70;;;;;;4974917;28;20034;-80
2022/02/01 01:07:12;;;;;;;44.63;30.03;;;2.30;86.10;;;;;;4975560;28;20030;-79
2022/02/01 01:09:38;;;;;;;38.23;27.37;;;2.20;85.20;;;;;;4975064;28;20057;-79
2022/02/01 01:12:04;;;;;;;39.40;27.43;;;2.30;85.20;;;;;;4975206;28;20499;-78
2022/02/01 01:44:30;;;;;;;39.13;27.40;;;1.90;84.80;;;;;;4975345;28;20049;-80
2022/02/01 01:55:13;;;;;;;39.87;27.57;;;1.90;84.60;;;;;;4975079;28;20404;-77
2022/02/01 01:57:40;;;;;;;37.03;26.37;;;1.90;84.70;;;;;;4973641;28;20031;-78
2022/02/01 02:00:13;;;;;;;39.53;25.40;;;2.00;84.50;;;;;;4972087;28;20526;-80
2022/02/01 02:02:39;;;;;;;41.63;27.93;;;2.00;84.30;;;;;;4971907;28;20097;-78
2022/02/01 02:05:05;;;;;;;36.33;26.00;;;1.90;83.70;;;;;;4973243;28;20023;-78
2022/02/01 02:07:31;;;;;;;35.37;25.77;;;1.90;83.70;;;;;;4973470;28;20035;-78
2022/02/01 02:09:57;;;;;;;38.77;26.87;;;1.90;83.30;;;;;;4972930;28;20049;-78
2022/02/01 02:15:34;;;;;;;34.33;22.40;;;1.80;84.50;;;;;;4952033;28;20115;-77
2022/02/01 02:18:02;;;;;;;34.90;23.17;;;1.80;85.10;;;;;;4974101;28;20023;-77
2022/02/01 02:20:41;;;;;;;31.80;22.57;;;1.80;85.30;;;;;;4973738;28;20025;-77
2022/02/01 02:23:08;;;;;;;26.57;19.23;;;1.80;85.30;;;;;;4974187;28;20057;-78
2022/02/01 02:25:38;;;;;;;21.10;15.07;;;1.80;85.50;;;;;;4972886;28;20372;-77
2022/02/01 02:28:05;;;;;;;14.87;10.57;;;1.80;86.00;;;;;;4972777;28;20058;-77
2022/02/01 02:30:31;;;;;;;14.83;9.33;;;1.80;86.20;;;;;;4972958;28;20066;-77
2022/02/01 02:33:12;;;;;;;13.40;8.33;;;1.80;86.50;;;;;;4974176;28;20066;-77
2022/02/01 02:35:53;;;;;;;12.20;7.97;;;1.90;86.70;;;;;;4973488;28;20027;-78
2022/02/01 02:38:26;;;;;;;11.73;8.20;;;1.90;87.00;;;;;;4973608;28;20109;-79
2022/02/01 02:46:02;;;;;;;19.07;13.10;;;2.10;86.70;;;;;;4974251;28;20041;-78
2022/02/01 02:48:27;;;;;;;22.20;13.47;;;2.10;86.20;;;;;;4973644;28;20105;-78
2022/02/01 02:50:53;;;;;;;22.57;15.50;;;2.10;85.80;;;;;;4972847;28;20077;-78
2022/02/01 02:53:19;;;;;;;25.43;17.47;;;2.10;85.40;;;;;;4973744;28;20097;-78
2022/02/01 02:55:45;;;;;;;26.07;17.87;;;2.10;85.00;;;;;;4973902;28;20460;-77
2022/02/01 02:58:10;;;;;;;28.40;18.87;;;2.10;84.60;;;;;;4973322;28;20058;-78
2022/02/01 03:00:37;;;;;;;24.10;18.17;;;2.00;84.00;;;;;;4973886;28;20037;-78
2022/02/01 03:03:03;;;;;;;25.70;18.57;;;1.90;83.70;;;;;;4973689;28;20471;-78
2022/02/01 03:05:29;;;;;;;31.43;18.87;;;1.90;83.50;;;;;;4973886;28;20098;-80
2022/02/01 03:07:54;;;;;;;28.60;18.97;;;1.90;83.40;;;;;;4973832;28;20030;-78
2022/02/01 03:10:23;;;;;;;28.53;19.70;;;1.80;83.40;;;;;;4972475;28;20130;-81
2022/02/01 03:20:37;;;;;;;28.17;19.13;;;1.80;82.70;;;;;;4974230;28;20086;-82
2022/02/01 03:23:03;;;;;;;26.77;19.00;;;1.80;82.50;;;;;;4973804;28;20031;-82
2022/02/01 03:25:28;;;;;;;28.83;19.20;;;1.80;82.30;;;;;;4973835;28;20058;-78
2022/02/01 03:27:54;;;;;;;30.60;18.83;;;1.70;82.10;;;;;;4973760;28;20456;-77
2022/02/01 03:30:22;;;;;;;26.10;17.57;;;1.60;82.20;;;;;;4973605;28;20081;-77
2022/02/01 03:32:48;;;;;;;24.47;16.90;;;1.60;82.10;;;;;;4973256;28;20125;-78
2022/02/01 03:35:14;;;;;;;25.77;16.70;;;1.60;82.10;;;;;;4973812;28;20030;-78
2022/02/01 03:37:39;;;;;;;24.13;17.73;;;1.60;82.50;;;;;;4973502;28;20034;-77
2022/02/01 03:40:07;;;;;;;25.57;16.20;;;1.60;82.70;;;;;;4973718;28;20105;-78
2022/02/01 03:42:32;;;;;;;24.57;16.63;;;1.50;82.80;;;;;;4973456;28;20087;-77
2022/02/01 03:44:58;;;;;;;24.90;16.77;;;1.50;83.00;;;;;;4972608;28;20106;-79
2022/02/01 03:47:24;;;;;;;33.50;18.60;;;1.50;83.00;;;;;;4972350;28;20488;-77
2022/02/01 03:49:49;;;;;;;25.73;17.03;;;1.50;83.00;;;;;;4975728;28;20402;-78
2022/02/01 03:52:15;;;;;;;27.27;16.97;;;1.50;83.10;;;;;;4976130;28;20030;-79
2022/02/01 03:54:41;;;;;;;22.77;15.93;;;1.50;83.30;;;;;;4975487;28;20026;-78
2022/02/01 03:57:08;;;;;;;25.50;16.90;;;1.50;83.20;;;;;;4976107;28;20119;-78
2022/02/01 03:59:34;;;;;;;24.37;15.70;;;1.50;82.90;;;;;;4976725;28;20398;-78
2022/02/01 04:02:01;;;;;;;22.60;15.83;;;1.50;82.80;;;;;;4976672;28;20023;-78
2022/02/01 04:04:30;;;;;;;21.73;16.23;;;1.50;82.80;;;;;;4976819;28;20037;-78
2022/02/01 04:06:56;;;;;;;24.03;16.30;;;1.50;83.00;;;;;;4976610;28;20025;-79
2022/02/01 04:09:23;;;;;;;24.23;16.50;;;1.40;82.90;;;;;;4976628;28;20554;-78
2022/02/01 04:11:49;;;;;;;24.20;16.73;;;1.40;82.90;;;;;;4976586;28;20114;-78
2022/02/01 04:14:20;;;;;;;21.73;15.60;;;1.40;83.00;;;;;;4976426;28;20126;-78
2022/02/01 04:16:45;;;;;;;23.07;15.90;;;1.30;83.20;;;;;;4975971;28;20506;-78
2022/02/01 04:19:12;;;;;;;23.93;15.90;;;1.30;83.20;;;;;;4974927;28;20058;-77
2022/02/01 04:21:41;;;;;;;20.37;14.83;;;1.30;83.20;;;;;;4976067;28;20054;-78
2022/02/01 04:24:06;;;;;;;21.53;14.87;;;1.30;83.30;;;;;;4976556;28;20025;-78
2022/02/01 04:26:32;;;;;;;18.80;13.83;;;1.30;83.40;;;;;;4976277;28;20483;-78
2022/02/01 04:28:58;;;;;;;25.13;14.73;;;1.40;83.80;;;;;;4975968;28;20074;-77
2022/02/01 04:31:23;;;;;;;22.03;13.70;;;1.30;84.00;;;;;;4976738;28;20101;-78
2022/02/01 04:33:49;;;;;;;23.50;14.50;;;1.40;84.40;;;;;;4976296;28;20089;-78
2022/02/01 04:36:15;;;;;;;20.80;13.17;;;1.40;84.50;;;;;;4974260;28;20031;-78
2022/02/01 04:38:47;;;;;;;22.03;14.57;;;1.40;84.70;;;;;;4975134;28;20492;-80
2022/02/01 04:41:12;;;;;;;20.13;12.90;;;1.40;85.10;;;;;;4974854;28;20490;-79
2022/02/01 04:43:38;;;;;;;19.60;13.70;;;1.40;84.20;;;;;;4976148;28;20031;-78
2022/02/01 04:46:05;;;;;;;18.77;13.57;;;1.40;84.10;;;;;;4976211;28;20031;-78
2022/02/01 04:48:31;;;;;;;18.97;13.37;;;1.40;84.00;;;;;;4975191;28;20030;-78
2022/02/01 04:50:57;;;;;;;19.17;12.50;;;1.40;83.90;;;;;;4974912;28;20428;-77
2022/02/01 04:53:22;;;;;;;19.87;12.50;;;1.40;84.00;;;;;;4975103;28;20031;-77
2022/02/01 04:58:14;;;;;;;18.70;12.10;;;1.40;83.70;;;;;;4975735;28;20041;-77
2022/02/01 05:00:39;;;;;;;17.30;11.80;;;1.30;83.50;;;;;;4975727;28;20062;-79
2022/02/01 05:03:05;;;;;;;17.10;11.43;;;1.30;83.70;;;;;;4975813;28;20038;-78
2022/02/01 05:05:31;;;;;;;15.80;10.37;;;1.30;83.80;;;;;;4975564;28;20027;-77
2022/02/01 05:08:02;;;;;;;15.13;10.63;;;1.30;84.00;;;;;;4975478;28;20030;-77
2022/02/01 05:10:30;;;;;;;15.53;10.43;;;1.30;84.00;;;;;;4975379;28;20515;-77
2022/02/01 05:13:06;;;;;;;15.83;10.50;;;1.40;83.90;;;;;;4975559;28;20483;-77
2022/02/01 05:15:32;;;;;;;16.83;11.87;;;1.40;83.80;;;;;;4975317;28;20026;-77
2022/02/01 05:17:58;;;;;;;15.97;10.60;;;1.40;83.60;;;;;;4975362;28;20027;-79
2022/02/01 05:20:45;;;;;;;17.23;11.33;;;1.30;83.30;;;;;;4975760;28;20077;-77
2022/02/01 05:23:11;;;;;;;16.10;10.77;;;1.30;83.00;;;;;;4975357;28;20035;-78
2022/02/01 05:25:36;;;;;;;17.97;11.50;;;1.30;82.70;;;;;;4975220;28;20081;-78
2022/02/01 05:28:02;;;;;;;14.50;9.77;;;1.30;82.70;;;;;;4975229;28;20042;-77
2022/02/01 05:30:29;;;;;;;14.57;9.90;;;1.20;82.40;;;;;;4975070;28;20428;-77
2022/02/01 05:32:55;;;;;;;17.20;10.30;;;1.20;82.60;;;;;;4975191;28;20042;-77
2022/02/01 05:35:21;;;;;;;15.30;10.50;;;1.20;82.90;;;;;;4974773;28;20038;-82
2022/02/01 05:37:47;;;;;;;12.43;8.10;;;1.20;83.10;;;;;;4974791;28;20027;-82
2022/02/01 05:40:14;;;;;;;15.97;9.57;;;1.20;83.50;;;;;;4973854;28;20026;-77
2022/02/01 05:43:01;;;;;;;12.33;9.27;;;1.30;83.60;;;;;;4975110;28;20031;-77
2022/02/01 05:45:28;;;;;;;14.00;9.80;;;1.20;83.40;;;;;;4973406;28;20113;-77
2022/02/01 05:47:55;;;;;;;15.47;9.50;;;1.20;83.20;;;;;;4974080;28;20106;-77
2022/02/01 05:50:21;;;;;;;16.80;10.73;;;1.20;83.00;;;;;;4974103;28;20423;-77
2022/02/01 05:52:47;;;;;;;15.80;11.00;;;1.20;82.90;;;;;;4974649;28;20027;-77
2022/02/01 05:55:14;;;;;;;17.37;11.83;;;1.20;82.70;;;;;;4974485;28;20081;-77
2022/02/01 05:57:40;;;;;;;16.33;11.47;;;1.20;82.80;;;;;;4974148;28;20023;-78
2022/02/01 06:00:08;;;;;;;19.80;11.97;;;1.20;82.60;;;;;;4974535;28;20031;-77
2022/02/01 06:02:33;;;;;;;19.10;11.93;;;1.10;82.50;;;;;;4974670;28;20394;-77
2022/02/01 06:04:59;;;;;;;16.70;11.93;;;1.20;82.40;;;;;;4974542;28;20045;-77
2022/02/01 06:07:25;;;;;;;16.77;11.63;;;1.10;82.30;;;;;;4974527;28;20085;-77
2022/02/01 06:09:51;;;;;;;20.83;12.57;;;1.10;82.10;;;;;;4973636;28;20055;-77
2022/02/01 06:12:17;;;;;;;17.73;11.83;;;1.10;82.20;;;;;;4973892;28;20046;-77
2022/02/01 06:14:42;;;;;;;19.83;13.13;;;1.10;81.90;;;;;;4974384;28;20109;-77
2022/02/01 06:17:08;;;;;;;19.10;12.57;;;1.00;81.60;;;;;;4974561;28;20109;-77
2022/02/01 06:19:34;;;;;;;19.30;12.63;;;1.00;81.20;;;;;;4974505;28;20049;-77
2022/02/01 06:22:02;;;;;;;21.33;13.97;;;1.00;81.20;;;;;;4974271;28;20031;-77
2022/02/01 06:24:28;;;;;;;22.13;13.00;;;1.00;81.30;;;;;;4974480;28;20026;-77
2022/02/01 06:26:53;;;;;;;24.37;14.67;;;0.90;81.20;;;;;;4974247;28;20023;-77
2022/02/01 06:29:19;;;;;;;20.97;14.43;;;0.90;81.40;;;;;;4974225;28;20027;-77
2022/02/01 06:31:45;;;;;;;24.07;15.03;;;0.90;81.50;;;;;;4974152;28;20085;-77
2022/02/01 06:34:11;;;;;;;24.93;15.13;;;0.90;81.60;;;;;;4973353;28;20506;-77
2022/02/01 06:36:36;;;;;;;23.47;14.80;;;0.90;81.70;;;;;;4972353;28;20022;-77
2022/02/01 06:39:07;;;;;;;25.37;15.67;;;0.90;82.00;;;;;;4974099;28;20031;-77
2022/02/01 06:41:32;;;;;;;25.13;14.80;;;0.90;82.00;;;;;;4972990;28;20495;-78
2022/02/01 06:43:58;;;;;;;26.37;15.43;;;0.90;81.90;;;;;;4974153;28;20054;-78
2022/02/01 06:46:24;;;;;;;35.07;18.40;;;0.90;81.90;;;;;;4973403;28;20117;-76
2022/02/01 06:48:50;;;;;;;35.93;18.07;;;0.90;82.10;;;;;;4973291;28;20027;-77
2022/02/01 06:51:18;;;;;;;36.93;18.60;;;0.90;82.20;;;;;;4970983;28;20486;-77
2022/02/01 06:53:45;;;;;;;33.30;17.33;;;0.90;82.40;;;;;;4973233;28;20038;-77
2022/02/01 06:56:18;;;;;;;31.67;16.20;;;0.90;82.80;;;;;;4973075;28;20351;-78
2022/02/01 06:58:45;;;;;;;30.40;17.40;;;0.90;82.90;;;;;;4972649;28;20030;-78
2022/02/01 07:01:10;;;;;;;31.90;17.00;;;0.90;82.90;;;;;;4972350;28;20023;-78
2022/02/01 07:03:36;;;;;;;31.00;16.77;;;0.90;83.20;;;;;;4973858;28;20038;-77
2022/02/01 07:06:05;;;;;;;28.83;16.57;;;1.00;83.20;;;;;;4974126;28;20030;-78
2022/02/01 07:08:31;;;;;;;41.20;18.53;;;1.00;83.20;;;;;;4973333;28;20086;-78
2022/02/01 07:10:56;;;;;;;31.47;18.40;;;1.00;83.70;;;;;;4973145;28;20496;-77
2022/02/01 07:13:22;;;;;;;30.10;16.97;;;1.00;83.20;;;;;;4972139;28;20071;-77
2022/02/01 07:15:48;;;;;;;26.77;16.03;;;1.00;83.30;;;;;;4973567;28;20026;-77
2022/02/01 07:18:13;;;;;;;38.63;17.80;;;1.10;83.30;;;;;;4971849;28;20543;-76
2022/02/01 07:20:39;;;;;;;32.27;17.93;;;1.10;83.30;;;;;;4973431;28;20030;-77
2022/02/01 07:23:10;;;;;;;31.83;17.73;;;1.20;83.20;;;;;;4976354;28;20027;-79
2022/02/01 07:25:44;;;;;;;29.00;16.33;;;1.10;83.70;;;;;;4975161;28;20043;-77
2022/02/01 07:28:10;;;;;;;29.93;16.47;;;1.20;84.00;;;;;;4976786;28;20443;-77
2022/02/01 07:30:36;;;;;;;29.10;17.40;;;1.10;84.10;;;;;;4976918;28;20046;-79
2022/02/01 07:33:02;;;;;;;31.33;17.87;;;1.20;84.30;;;;;;4978546;28;20109;-76
2022/02/01 07:35:30;;;;;;;27.00;17.00;;;1.20;84.50;;;;;;4996860;28;20106;-77
2022/02/01 07:37:57;;;;;;;29.33;18.37;;;1.20;85.00;;;;;;4996661;28;20110;-78
2022/02/01 07:40:23;;;;;;;28.40;17.13;;;1.20;84.90;;;;;;4996079;28;20427;-80
2022/02/01 07:42:50;;;;;;;25.07;14.47;;;1.30;85.30;;;;;;4996453;28;20110;-76
2022/02/01 07:45:19;;;;;;;19.73;13.00;;;1.30;85.80;;;;;;4996384;28;20027;-77
2022/02/01 07:47:44;;;;;;;19.70;12.63;;;1.30;85.40;;;;;;4996005;28;20034;-80
2022/02/01 07:50:11;;;;;;;15.80;11.10;;;1.40;85.80;;;;;;4996012;28;20026;-79
2022/02/01 07:52:37;;;;;;;13.03;9.10;;;1.40;85.60;;;;;;4995820;28;20104;-77
2022/02/01 07:55:04;;;;;;;14.57;9.60;;;1.50;85.80;;;;;;4993634;28;20034;-76
2022/02/01 07:57:30;;;;;;;16.53;10.17;;;1.50;85.70;;;;;;4993861;28;20102;-75
2022/02/01 07:59:56;;;;;;;16.40;9.30;;;1.60;85.20;;;;;;4994194;28;20030;-75
2022/02/01 08:02:25;;;;;;;14.80;9.50;;;1.60;85.10;;;;;;4978514;28;20035;-77
2022/02/01 08:04:53;;;;;;;14.67;8.90;;;1.80;85.50;;;;;;4996173;28;20224;-75
2022/02/01 08:07:20;;;;;;;13.47;8.20;;;1.90;85.50;;;;;;4995799;28;20109;-80
2022/02/01 08:09:50;;;;;;;10.30;7.57;;;1.90;85.30;;;;;;4993341;28;20054;-78
2022/02/01 08:20:03;;;;;;;28.77;15.27;;;2.20;84.60;;;;;;4995858;28;20399;-81
2022/02/01 08:23:02;;;;;;;33.43;16.67;;;2.30;85.00;;;;;;4978703;28;20030;-79
2022/02/01 08:25:23;;;;;;;32.15;15.98;;;2.30;85.30;;;;;;4989128;28;20775;-79
2022/02/01 08:27:52;;;;;;;28.60;15.27;;;2.40;85.80;;;;;;4993172;28;20065;-79
2022/02/01 08:30:19;;;;;;;26.13;14.83;;;2.40;85.40;;;;;;4995557;28;20113;-79
2022/02/01 08:32:45;;;;;;;22.63;13.77;;;2.40;85.30;;;;;;4995583;28;20038;-79
2022/02/01 08:35:10;;;;;;;23.63;13.50;;;2.50;84.90;;;;;;4995468;28;20093;-79
2022/02/01 08:37:36;;;;;;;21.17;13.00;;;2.60;84.90;;;;;;4995571;28;20387;-79
2022/02/01 08:40:02;;;;;;;28.60;14.60;;;2.60;86.10;;;;;;4995428;28;20371;-78
2022/02/01 08:42:28;;;;;;;20.20;12.97;;;2.70;86.20;;;;;;4992352;28;20153;-76
2022/02/01 08:44:54;;;;;;;23.50;14.87;;;2.80;86.00;;;;;;4992738;28;20113;-77
2022/02/01 08:47:20;;;;;;;18.27;10.47;;;2.90;85.70;;;;;;4993131;28;20360;-77
2022/02/01 08:49:46;;;;;;;10.27;7.07;;;2.90;85.40;;;;;;4977495;28;20030;-78
2022/02/01 08:52:22;;;;;;;12.50;6.10;;;3.00;85.60;;;;;;4994624;28;20042;-77
2022/02/01 08:54:51;;;;;;;11.57;6.07;;;3.10;84.80;;;;;;4994985;28;20490;-77
2022/02/01 08:57:21;;;;;;;13.10;6.30;;;3.20;84.50;;;;;;4994851;28;20029;-77
2022/02/01 08:59:52;;;;;;;9.93;6.53;;;3.30;84.40;;;;;;4995272;28;20456;-77
2022/02/01 09:02:24;;;;;;;8.57;5.83;;;3.30;84.00;;;;;;4995210;28;20036;-77
2022/02/01 09:04:50;;;;;;;9.67;6.00;;;3.40;83.70;;;;;;4994552;28;20031;-77
2022/02/01 09:07:16;;;;;;;10.17;6.27;;;3.50;83.20;;;;;;4994791;28;20495;-77
2022/02/01 09:09:42;;;;;;;9.37;6.00;;;3.60;83.30;;;;;;4977125;28;20046;-77
2022/02/01 09:12:08;;;;;;;10.17;5.83;;;3.70;83.00;;;;;;4994389;28;20026;-77
2022/02/01 09:14:35;;;;;;;8.63;5.80;;;3.80;82.90;;;;;;4994771;28;20030;-77
2022/02/01 09:17:07;;;;;;;9.57;5.70;;;3.80;82.50;;;;;;4994821;28;20038;-76
2022/02/01 09:19:33;;;;;;;11.17;6.33;;;3.90;82.20;;;;;;4994324;28;20037;-76
2022/02/01 09:22:01;;;;;;;8.77;5.70;;;4.00;81.80;;;;;;4994391;28;20402;-75
2022/02/01 09:24:29;;;;;;;10.13;5.93;;;4.10;81.60;;;;;;4994464;28;20018;-76
2022/02/01 09:26:55;;;;;;;13.97;9.33;;;4.20;82.10;;;;;;4993961;28;20486;-76
2022/02/01 09:29:21;;;;;;;16.47;10.40;;;4.20;83.30;;;;;;4994252;28;20033;-76
2022/02/01 09:31:48;;;;;;;18.40;10.67;;;4.30;83.60;;;;;;4976872;28;20023;-77
2022/02/01 09:34:14;;;;;;;15.37;10.70;;;4.30;83.20;;;;;;4994231;28;20023;-79
2022/02/01 09:36:40;;;;;;;17.20;11.27;;;4.40;83.70;;;;;;4994346;28;20026;-81
2022/02/01 09:39:08;;;;;;;20.40;11.53;;;4.40;83.70;;;;;;4994256;28;20033;-77
2022/02/01 09:41:37;;;;;;;15.67;10.90;;;4.40;84.50;;;;;;4994051;28;20076;-77
2022/02/01 09:44:04;;;;;;;16.93;11.23;;;4.50;84.90;;;;;;4994182;28;20022;-78
2022/02/01 09:46:30;;;;;;;21.23;12.40;;;4.50;84.40;;;;;;4975944;28;20022;-78
2022/02/01 09:48:57;;;;;;;16.90;12.07;;;4.60;84.30;;;;;;4992190;28;20022;-79
2022/02/01 09:51:24;;;;;;;21.67;12.03;;;4.70;84.40;;;;;;4991267;28;20495;-78
2022/02/01 09:53:50;;;;;;;17.03;11.33;;;4.70;83.80;;;;;;4991564;28;20514;-79
2022/02/01 09:56:17;;;;;;;17.83;12.27;;;4.80;84.00;;;;;;4993733;28;20022;-80
2022/02/01 09:58:48;;;;;;;19.10;11.43;;;4.80;84.80;;;;;;4993767;28;20030;-80
2022/02/01 10:01:19;;;;;;;16.43;10.20;;;4.90;84.80;;;;;;4976287;28;20030;-79
2022/02/01 10:03:57;;;;;;;13.80;9.27;;;5.00;84.50;;;;;;4975986;28;20035;-79
2022/02/01 10:06:30;;;;;;;9.93;6.53;;;5.10;83.80;;;;;;4992752;28;20022;-80
2022/02/01 10:09:07;;;;;;;9.82;6.60;;;5.20;83.00;;;;;;4992466;28;20058;-77
2022/02/01 10:11:41;;;;;;;6.63;4.30;;;5.20;81.80;;;;;;4974398;28;20481;-79
2022/02/01 10:14:12;;;;;;;8.47;4.23;;;5.30;80.30;;;;;;4993681;28;20388;-78
2022/02/01 10:16:51;;;;;;;6.27;3.67;;;5.40;78.60;;;;;;4993722;28;20065;-79
2022/02/01 10:19:19;;;;;;;5.80;3.40;;;5.40;77.90;;;;;;4993846;28;20033;-81
2022/02/01 10:21:53;;;;;;;5.10;3.60;;;5.60;76.90;;;;;;4993839;28;20042;-80
2022/02/01 10:24:33;;;;;;;5.07;3.50;;;5.60;76.20;;;;;;4993376;28;20420;-79
2022/02/01 10:27:13;;;;;;;5.87;2.97;;;5.70;74.90;;;;;;4992779;28;20468;-79
2022/02/01 10:29:58;;;;;;;7.90;3.73;;;5.80;74.30;;;;;;4993228;28;20375;-79
2022/02/01 10:32:26;;;;;;;6.63;4.20;;;5.90;73.90;;;;;;4993535;28;20037;-79
2022/02/01 10:34:54;;;;;;;9.47;4.27;;;6.00;74.00;;;;;;4975654;28;20038;-79
2022/02/01 10:37:21;;;;;;;5.73;3.97;;;6.10;74.00;;;;;;4975344;28;20383;-80
2022/02/01 10:40:05;;;;;;;5.57;3.67;;;6.10;73.30;;;;;;4993244;28;20030;-79
2022/02/01 10:42:31;;;;;;;7.13;4.40;;;6.20;72.90;;;;;;4976021;28;20025;-80
2022/02/01 10:44:58;;;;;;;7.77;4.23;;;6.30;72.30;;;;;;4992845;28;20019;-81
2022/02/01 10:47:35;;;;;;;6.20;4.17;;;6.40;72.20;;;;;;4991981;28;20153;-79
2022/02/01 10:50:08;;;;;;;11.47;4.67;;;6.40;72.60;;;;;;4975565;28;20035;-81
2022/02/01 10:52:36;;;;;;;7.53;4.77;;;6.50;73.00;;;;;;4993630;28;20388;-79
2022/02/01 10:55:04;;;;;;;10.93;5.50;;;6.60;73.00;;;;;;4992911;28;20030;-79
2022/02/01 10:57:30;;;;;;;6.23;4.50;;;6.70;73.40;;;;;;4995238;28;20028;-80
2022/02/01 10:59:56;;;;;;;5.73;3.83;;;6.80;73.60;;;;;;4996236;28;20470;-80
2022/02/01 11:02:24;;;;;;;9.50;4.23;;;7.00;72.60;;;;;;4995346;28;20037;-80
2022/02/01 11:04:53;;;;;;;7.30;4.30;;;7.00;71.40;;;;;;4978508;28;20109;-79
2022/02/01 11:07:20;;;;;;;6.90;4.30;;;7.10;71.50;;;;;;4996568;28;20124;-80
2022/02/01 11:09:46;;;;;;;6.23;4.53;;;7.10;71.50;;;;;;4996355;28;20483;-80
2022/02/01 11:12:13;;;;;;;6.00;4.10;;;7.10;71.80;;;;;;4996675;28;20041;-80
2022/02/01 11:14:44;;;;;;;6.10;4.00;;;7.10;72.00;;;;;;4996516;28;20109;-79
2022/02/01 11:17:18;;;;;;;12.63;5.10;;;7.10;72.00;;;;;;4996754;28;20518;-79
2022/02/01 11:19:55;;;;;;;7.20;4.50;;;7.10;71.70;;;;;;4996676;28;20046;-79
2022/02/01 11:22:39;;;;;;;8.73;3.90;;;7.20;71.10;;;;;;4996627;28;20084;-80
2022/02/01 11:25:28;;;;;;;4.67;3.03;;;7.30;70.40;;;;;;4996846;28;20117;-80
2022/02/01 11:30:40;;;;;;;6.07;3.57;;;7.50;66.90;;;;;;4996953;28;20046;-79
2022/02/01 11:33:07;;;;;;;5.33;2.67;;;7.60;66.20;;;;;;4996511;28;20027;-79
2022/02/01 11:35:34;;;;;;;4.17;2.40;;;7.70;66.00;;;;;;4996778;28;20105;-78
2022/02/01 11:38:04;;;;;;;5.00;3.00;;;7.80;65.10;;;;;;4997135;28;20048;-79
2022/02/01 11:40:58;;;;;;;4.03;2.40;;;7.90;64.50;;;;;;4978734;28;20018;-80
2022/02/01 11:43:27;;;;;;;11.20;2.00;;;8.10;63.60;;;;;;4995638;28;20027;-80
2022/02/01 11:45:55;;;;;;;1.93;1.10;;;8.20;61.10;;;;;;4996036;28;20028;-79
2022/02/01 11:48:23;;;;;;;1.07;0.80;;;8.40;59.20;;;;;;4995654;28;20031;-79
2022/02/01 11:50:50;;;;;;;5.17;1.90;;;8.50;56.40;;;;;;4995860;28;20022;-79
2022/02/01 11:53:29;;;;;;;2.83;1.50;;;8.60;56.70;;;;;;4994733;28;20070;-79
2022/02/01 11:55:56;;;;;;;2.07;1.23;;;8.70;57.00;;;;;;4996442;28;20073;-80
2022/02/01 11:58:32;;;;;;;1.90;1.00;;;8.80;55.80;;;;;;4996067;28;20471;-79
2022/02/01 12:01:00;;;;;;;1.97;0.97;;;8.90;53.90;;;;;;4978819;28;20018;-79
2022/02/01 12:03:34;;;;;;;1.90;0.80;;;9.00;53.40;;;;;;4996065;28;20386;-79
2022/02/01 12:06:06;;;;;;;1.07;0.60;;;9.10;52.40;;;;;;4996279;28;20027;-79
2022/02/01 12:08:34;;;;;;;3.53;0.40;;;9.20;50.90;;;;;;4995471;28;20030;-79
2022/02/01 12:11:03;;;;;;;0.53;0.33;;;9.30;48.70;;;;;;4995878;28;20682;-79
2022/02/01 12:13:31;;;;;;;0.30;0.20;;;9.40;47.90;;;;;;4995901;28;20541;-80
2022/02/01 12:16:02;;;;;;;0.50;0.30;;;9.50;48.20;;;;;;4996214;28;20101;-79
2022/02/01 12:18:41;;;;;;;0.77;0.33;;;9.60;47.00;;;;;;4978335;28;20054;-79
2022/02/01 12:21:12;;;;;;;1.93;0.73;;;9.70;46.40;;;;;;4996070;28;20097;-79
2022/02/01 12:23:45;;;;;;;4.13;0.43;;;9.70;46.00;;;;;;4995859;28;20471;-79
2022/02/01 12:26:21;;;;;;;1.73;0.60;;;9.80;46.10;;;;;;4995862;28;20030;-79
2022/02/01 12:28:48;;;;;;;1.63;0.60;;;9.80;45.10;;;;;;4995441;28;20061;-79
2022/02/01 12:31:15;;;;;;;1.53;0.50;;;9.90;45.40;;;;;;4995807;28;20494;-79
2022/02/01 12:33:43;;;;;;;3.00;0.20;;;10.00;45.40;;;;;;4995858;28;20034;-79
2022/02/01 12:36:11;;;;;;;0.50;0.30;;;10.00;45.10;;;;;;4996013;28;20053;-79
2022/02/01 12:38:39;;;;;;;1.13;0.40;;;10.10;44.00;;;;;;4995817;28;20034;-78
2022/02/01 12:41:16;;;;;;;1.23;0.40;;;10.20;43.40;;;;;;4995545;28;20022;-83
2022/02/01 12:46:46;;;;;;;1.70;0.20;;;10.30;43.50;;;;;;4995343;28;20126;-80
2022/02/01 12:49:12;;;;;;;0.10;0.10;;;10.40;43.00;;;;;;4993487;28;20077;-82
2022/02/01 12:51:44;;;;;;;0.60;0.30;;;10.50;40.10;;;;;;4994363;28;20561;-80
2022/02/01 12:54:33;;;;;;;0.55;0.28;;;10.50;39.70;;;;;;4977464;28;20030;-79
2022/02/01 12:57:09;;;;;;;0.57;0.30;;;10.60;41.20;;;;;;4995120;28;20027;-80
2022/02/01 12:59:38;;;;;;;3.50;0.40;;;10.70;40.70;;;;;;4977232;28;20034;-78
2022/02/01 13:02:05;;;;;;;0.30;0.30;;;10.70;41.90;;;;;;4995075;28;20037;-82
2022/02/01 13:04:32;;;;;;;0.50;0.30;;;10.70;40.80;;;;;;4994803;28;20093;-80
2022/02/01 13:06:58;;;;;;;0.47;0.28;;;10.80;39.50;;;;;;4994914;28;20024;-79
2022/02/01 13:15:26;;;;;;;0.55;0.30;;;10.90;37.40;;;;;;4994974;28;20080;-79
2022/02/01 13:18:13;;;;;;;1.03;0.20;;;10.90;36.80;;;;;;4994358;28;20096;-80
2022/02/01 13:20:43;;;;;;;0.40;0.30;;;11.00;37.00;;;;;;4994406;28;20029;-79
2022/02/01 13:23:11;;;;;;;0.57;0.30;;;11.00;38.20;;;;;;4977415;28;20026;-79
2022/02/01 13:25:39;;;;;;;0.80;0.27;;;10.90;37.90;;;;;;4994745;28;20034;-79
2022/02/01 13:28:12;;;;;;;0.70;0.33;;;10.90;37.80;;;;;;4977368;28;20061;-79
2022/02/01 13:30:44;;;;;;;0.35;0.28;;;11.00;38.40;;;;;;4994554;28;20415;-80
2022/02/01 13:33:14;;;;;;;0.35;0.20;;;11.00;38.10;;;;;;4994498;28;20039;-79
2022/02/01 13:35:55;;;;;;;2.83;0.40;;;11.00;38.10;;;;;;4994374;28;20041;-78
2022/02/01 13:38:24;;;;;;;0.82;0.40;;;11.10;37.90;;;;;;4994482;28;20029;-81
2022/02/01 13:40:54;;;;;;;1.05;0.47;;;11.10;38.20;;;;;;4976841;28;20561;-81
2022/02/01 13:43:25;;;;;;;0.70;0.40;;;11.20;36.70;;;;;;4976938;28;20015;-81
2022/02/01 13:45:54;;;;;;;0.30;0.28;;;11.20;36.20;;;;;;4994103;28;20104;-80
2022/02/01 13:48:25;;;;;;;0.60;0.35;;;11.20;37.20;;;;;;4975112;28;20061;-83
2022/02/01 13:50:54;;;;;;;0.50;0.38;;;11.20;37.40;;;;;;4993475;28;20034;-79
2022/02/01 13:53:21;;;;;;;4.97;1.60;;;11.20;37.50;;;;;;4994088;28;20038;-80
2022/02/01 13:56:05;;;;;;;3.33;1.80;;;11.10;41.10;;;;;;4993840;28;20054;-79
2022/02/01 13:58:33;;;;;;;3.58;1.63;;;11.10;43.20;;;;;;4993554;28;20026;-78
2022/02/01 14:01:00;;;;;;;2.78;1.80;;;11.00;44.10;;;;;;4993402;28;20050;-79
2022/02/01 14:03:41;;;;;;;4.90;2.37;;;10.90;44.30;;;;;;4993610;28;20030;-80
2022/02/01 14:07:04;;;;;;;3.70;1.50;;;10.90;44.80;;;;;;4993702;28;20029;-78
2022/02/01 14:27:31;;;;;;;4.43;2.42;;;10.90;48.90;;;;;;4993125;28;20034;-78
2022/02/01 14:34:50;;;;;;;6.32;2.70;;;10.80;49.50;;;;;;4993524;28;20037;-78
2022/02/01 14:37:21;;;;;;;3.03;2.30;;;10.80;49.30;;;;;;4993267;28;20030;-78
2022/02/01 14:45:15;;;;;;;4.37;2.30;;;10.70;48.60;;;;;;4993354;28;20133;-77
2022/02/01 14:47:40;;;;;;;3.80;2.33;;;10.60;48.70;;;;;;4993018;28;20022;-77
2022/02/01 14:50:07;;;;;;;3.87;2.30;;;10.60;49.40;;;;;;4993443;28;20035;-77
2022/02/01 14:52:33;;;;;;;3.37;2.43;;;10.50;48.30;;;;;;4993300;28;20033;-76
2022/02/01 14:55:08;;;;;;;2.80;2.00;;;10.50;48.50;;;;;;4993542;28;20390;-77
2022/02/01 15:13:36;;;;;;;6.17;2.37;;;10.20;49.30;;;;;;4993306;28;20487;-77
2022/02/01 15:16:03;;;;;;;7.57;2.80;;;10.20;49.30;;;;;;4993131;28;20018;-76
2022/02/01 15:18:30;;;;;;;3.80;2.30;;;10.10;49.70;;;;;;4993038;28;20455;-78